TimeEDT,TemperatureF,Dew PointF,Humidity,Sea Level PressureIn,VisibilityMPH,Wind Direction,Wind SpeedMPH,Gust SpeedMPH,PrecipitationIn,Events,Conditions,WindDirDegrees,DateUTC
12:15 AM,57.2,53.6,88,30.08,10.0,WSW,6.9,-,N/A,,Scattered Clouds,250,2013-09-16 04:15:00
12:35 AM,57.2,53.6,88,30.08,10.0,WSW,5.8,-,N/A,,Scattered Clouds,250,2013-09-16 04:35:00
12:55 AM,57.2,53.6,88,30.08,10.0,West,6.9,-,N/A,,Mostly Cloudy,260,2013-09-16 04:55:00
1:15 AM,59.0,53.6,82,30.08,10.0,West,8.1,-,N/A,,Overcast,260,2013-09-16 05:15:00
1:35 AM,59.0,53.6,82,30.08,10.0,WSW,9.2,-,N/A,,Overcast,250,2013-09-16 05:35:00
1:55 AM,60.8,55.4,82,30.07,10.0,West,10.4,-,N/A,,Overcast,260,2013-09-16 05:55:00
2:15 AM,60.8,55.4,82,30.07,10.0,WSW,6.9,-,N/A,,Overcast,250,2013-09-16 06:15:00
2:35 AM,60.8,55.4,82,30.06,10.0,WSW,6.9,-,N/A,,Overcast,250,2013-09-16 06:35:00
2:55 AM,60.8,55.4,82,30.06,10.0,WSW,5.8,-,N/A,,Mostly Cloudy,250,2013-09-16 06:55:00
3:15 AM,59.0,57.2,94,30.06,10.0,WSW,8.1,-,N/A,,Scattered Clouds,250,2013-09-16 07:15:00
3:35 AM,60.8,57.2,88,30.05,10.0,WSW,6.9,-,N/A,,Partly Cloudy,250,2013-09-16 07:35:00
3:55 AM,59.0,57.2,94,30.05,10.0,WSW,6.9,-,N/A,,Mostly Cloudy,250,2013-09-16 07:55:00
4:15 AM,60.8,57.2,88,30.06,10.0,WSW,8.1,-,N/A,,Overcast,240,2013-09-16 08:15:00
4:35 AM,60.8,57.2,88,30.05,10.0,WSW,6.9,-,N/A,,Overcast,250,2013-09-16 08:35:00
4:55 AM,60.8,57.2,88,30.05,10.0,WSW,6.9,-,N/A,,Overcast,240,2013-09-16 08:55:00
5:15 AM,62.6,57.2,82,30.04,10.0,WSW,5.8,-,N/A,,Overcast,240,2013-09-16 09:15:00
5:35 AM,60.8,57.2,88,30.05,10.0,WSW,5.8,-,N/A,,Mostly Cloudy,250,2013-09-16 09:35:00
5:55 AM,60.8,57.2,88,30.05,10.0,WSW,6.9,-,N/A,,Mostly Cloudy,250,2013-09-16 09:55:00
6:15 AM,62.6,57.2,82,30.05,10.0,West,8.1,-,N/A,,Overcast,260,2013-09-16 10:15:00
6:35 AM,62.6,57.2,82,30.05,10.0,West,9.2,-,N/A,,Mostly Cloudy,270,2013-09-16 10:35:00
6:55 AM,62.6,57.2,82,30.05,10.0,West,9.2,-,N/A,,Mostly Cloudy,280,2013-09-16 10:55:00
7:15 AM,62.6,57.2,82,30.05,10.0,West,11.5,-,N/A,,Mostly Cloudy,280,2013-09-16 11:15:00
7:35 AM,64.4,57.2,77,30.05,10.0,West,10.4,-,N/A,,Partly Cloudy,270,2013-09-16 11:35:00
7:55 AM,62.6,55.4,77,30.05,10.0,West,9.2,-,N/A,,Clear,280,2013-09-16 11:55:00
8:15 AM,62.6,55.4,77,30.05,10.0,West,8.1,-,N/A,,Clear,270,2013-09-16 12:15:00
8:35 AM,62.6,55.4,77,30.06,10.0,WNW,6.9,-,N/A,,Clear,290,2013-09-16 12:35:00
8:55 AM,62.6,55.4,77,30.06,10.0,WNW,5.8,-,N/A,,Clear,290,2013-09-16 12:55:00
9:15 AM,62.6,55.4,77,30.06,10.0,West,6.9,-,N/A,,Partly Cloudy,270,2013-09-16 13:15:00
9:35 AM,62.6,55.4,77,30.07,10.0,WNW,9.2,-,N/A,,Mostly Cloudy,290,2013-09-16 13:35:00
9:55 AM,62.6,53.6,72,30.07,10.0,WNW,6.9,-,N/A,,Overcast,300,2013-09-16 13:55:00
10:15 AM,62.6,53.6,72,30.07,10.0,NNW,5.8,-,N/A,,Overcast,330,2013-09-16 14:15:00
10:35 AM,60.8,53.6,77,30.07,10.0,NNW,8.1,-,N/A,,Overcast,330,2013-09-16 14:35:00
10:55 AM,60.8,50.0,68,30.07,10.0,NNW,9.2,-,N/A,,Overcast,340,2013-09-16 14:55:00
11:15 AM,60.8,51.8,72,30.06,10.0,North,3.5,-,N/A,Rain,Light Rain,360,2013-09-16 15:15:00
11:35 AM,59.0,53.6,82,30.06,10.0,NNE,6.9,-,N/A,,Overcast,20,2013-09-16 15:35:00
11:55 AM,59.0,53.6,82,30.07,10.0,NNW,4.6,-,N/A,,Overcast,340,2013-09-16 15:55:00
12:15 PM,59.0,53.6,82,30.07,9.0,NNW,4.6,-,N/A,,Overcast,340,2013-09-16 16:15:00
12:35 PM,59.0,53.6,82,30.07,8.0,NNW,5.8,-,N/A,Rain,Light Rain,330,2013-09-16 16:35:00
12:55 PM,57.2,53.6,88,30.07,10.0,NNW,8.1,-,N/A,,Mostly Cloudy,340,2013-09-16 16:55:00
1:15 PM,57.2,53.6,88,30.06,7.0,North,3.5,-,N/A,Rain,Light Rain,350,2013-09-16 17:15:00
1:35 PM,57.2,55.4,94,30.06,9.0,North,4.6,-,0.02,Rain,Light Rain,350,2013-09-16 17:35:00
1:55 PM,57.2,55.4,94,30.05,10.0,Calm,Calm,-,0.02,,Overcast,0,2013-09-16 17:55:00
2:15 PM,57.2,53.6,88,30.05,10.0,Calm,Calm,-,N/A,,Overcast,0,2013-09-16 18:15:00
2:35 PM,59.0,55.4,88,30.04,10.0,SE,4.6,-,N/A,,Overcast,130,2013-09-16 18:35:00
2:55 PM,59.0,55.4,88,30.04,10.0,Calm,Calm,-,N/A,,Overcast,0,2013-09-16 18:55:00
3:15 PM,60.8,55.4,82,30.04,10.0,Calm,Calm,-,N/A,,Overcast,0,2013-09-16 19:15:00
3:35 PM,62.6,53.6,72,30.04,10.0,North,3.5,-,N/A,,Overcast,10,2013-09-16 19:35:00
3:55 PM,64.4,53.6,68,30.03,10.0,NW,5.8,-,N/A,,Scattered Clouds,320,2013-09-16 19:55:00
4:15 PM,64.4,50.0,59,30.04,10.0,NNW,5.8,-,N/A,,Clear,330,2013-09-16 20:15:00
4:35 PM,64.4,50.0,59,30.04,10.0,NNW,4.6,-,N/A,,Clear,330,2013-09-16 20:35:00
4:55 PM,64.4,50.0,59,30.04,10.0,North,8.1,-,N/A,,Clear,360,2013-09-16 20:55:00
5:15 PM,62.6,51.8,68,30.04,10.0,Calm,Calm,-,N/A,,Partly Cloudy,0,2013-09-16 21:15:00
5:35 PM,62.6,53.6,72,30.05,10.0,Calm,Calm,-,N/A,,Mostly Cloudy,0,2013-09-16 21:35:00
5:55 PM,62.6,53.6,72,30.06,10.0,Calm,Calm,-,N/A,,Overcast,0,2013-09-16 21:55:00
6:15 PM,62.6,55.4,77,30.06,10.0,Calm,Calm,-,N/A,,Overcast,0,2013-09-16 22:15:00
6:35 PM,62.6,53.6,72,30.06,10.0,Calm,Calm,-,N/A,,Overcast,0,2013-09-16 22:35:00
6:55 PM,59.0,55.4,88,30.07,10.0,NW,3.5,-,N/A,,Overcast,320,2013-09-16 22:55:00
7:15 PM,59.0,55.4,88,30.07,10.0,NNE,5.8,-,N/A,,Overcast,20,2013-09-16 23:15:00
7:35 PM,59.0,53.6,82,30.08,10.0,North,8.1,-,N/A,,Overcast,350,2013-09-16 23:35:00
7:55 PM,59.0,53.6,82,30.09,10.0,North,5.8,-,N/A,,Overcast,360,2013-09-16 23:55:00
8:15 PM,59.0,51.8,77,30.10,10.0,North,6.9,-,N/A,,Overcast,360,2013-09-17 00:15:00
8:35 PM,59.0,50.0,72,30.11,10.0,North,6.9,-,N/A,,Mostly Cloudy,360,2013-09-17 00:35:00
8:55 PM,57.2,50.0,77,30.12,10.0,North,8.1,-,N/A,,Scattered Clouds,360,2013-09-17 00:55:00
9:15 PM,57.2,44.6,63,30.13,10.0,North,11.5,17.3,N/A,,Partly Cloudy,10,2013-09-17 01:15:00
9:35 PM,57.2,44.6,63,30.14,10.0,North,8.1,-,N/A,,Partly Cloudy,350,2013-09-17 01:35:00
9:55 PM,55.4,44.6,67,30.15,10.0,North,11.5,17.3,N/A,,Mostly Cloudy,360,2013-09-17 01:55:00
10:15 PM,55.4,42.8,63,30.16,10.0,North,13.8,17.3,N/A,,Overcast,350,2013-09-17 02:15:00
10:35 PM,55.4,42.8,63,30.17,10.0,North,10.4,16.1,N/A,,Overcast,360,2013-09-17 02:35:00
10:55 PM,53.6,42.8,67,30.18,10.0,North,11.5,19.6,N/A,,Scattered Clouds,350,2013-09-17 02:55:00
11:15 PM,53.6,42.8,67,30.19,10.0,North,10.4,19.6,N/A,,Mostly Cloudy,350,2013-09-17 03:15:00
11:35 PM,53.6,42.8,67,30.19,10.0,North,10.4,18.4,N/A,,Overcast,350,2013-09-17 03:35:00
11:55 PM,53.6,44.6,72,30.20,10.0,North,11.5,17.3,N/A,,Overcast,350,2013-09-17 03:55:00